Vienna, Austria
Current Conditions -  °F | °C
As of 7:20 AM on Wednesday 22 Oct 2014 (Local Time) from LOWW Reporting Station
Broken Clouds Broken Clouds  
Wind Chill: 50°   Ceiling: 6600
Heat Index: 50°   Visibility: 6mi
Dew Point: 39°   Wind: 22mph
Humidity: 66%   Direction: 300°WNW
Pressure: 29.71"   Gusts: NA
Location:  48.22°N, 16.37°E
Report Text: LOWW 220520Z 30019KT 9999 FEW047 BKN066 10/04 Q1006 NOSIG
Loading
Personal Weather Stations






























Interactive Weather Map
Tropical Storm Tracking
New forecast layout! Learn more

10-Day Weather Forecast

Advertisements
Track Severe Weather on mobile